Weather at Dallas Fort Worth International Airport

Public forecast

Using degrees Fahrenheit for public forecast. Weather courtesy of forecast.io.

Current aviation weather report (METAR) for Dallas Fort Worth International Airport

Retrieved 2021/05/11 20:35 UTC (0 seconds ago):

KDFW 112035Z 11016G21KT 2SM +TSRA BR SCT006 BKN055 OVC090 14/14 A2994 RMK AO2 LTG DSNT E-SW PRESFR TS MOVD E P0019 T01440139

Aviation forecast (TAF) for Dallas Fort Worth International Airport

Retrieved 2021/05/11 18:21 UTC (2 hours ago):

TAF KDFW 111720Z 1118/1224 36011KT 2SM TSRA OVC005CB FM112200 07013KT 4SM BR VCTS OVC007CB TEMPO 1122/1202 -TSRA FM120200 03010KT 5SM BR VCSH OVC005 FM120600 03010KT P6SM OVC005 FM122100 04011KT P6SM BKN010